createdAt,value
2022-12-15T00:00:19.983Z,100.00
2022-12-15T00:03:05.660Z,100.00
2022-12-15T00:05:51.386Z,100.00
2022-12-15T00:08:37.681Z,100.00
2022-12-15T00:11:23.182Z,100.00
2022-12-15T00:14:09.313Z,100.00
2022-12-15T00:16:55.972Z,100.00
2022-12-15T00:19:42.011Z,100.00
2022-12-15T00:22:27.604Z,100.00
2022-12-15T00:25:14.174Z,100.00
2022-12-15T00:28:00.353Z,100.00
2022-12-15T00:30:50.055Z,100.00
2022-12-15T00:33:37.281Z,100.00
2022-12-15T00:36:29.020Z,100.00
2022-12-15T00:39:01.895Z,100.00
2022-12-15T00:41:31.235Z,100.00
2022-12-15T00:43:58.584Z,100.00
2022-12-15T00:46:44.494Z,100.00
2022-12-15T00:49:34.643Z,100.00
2022-12-15T00:52:21.398Z,100.00
2022-12-15T00:55:07.533Z,100.00
2022-12-15T00:57:53.096Z,100.00
2022-12-15T01:00:39.679Z,100.00
2022-12-15T01:03:51.184Z,100.00
2022-12-15T01:06:39.678Z,100.00
2022-12-15T01:09:28.867Z,100.00
2022-12-15T01:12:14.955Z,100.00
2022-12-15T01:15:00.665Z,100.00
2022-12-15T01:17:46.593Z,100.00
2022-12-15T01:20:20.214Z,100.00
2022-12-15T01:22:56.939Z,100.00
2022-12-15T01:25:26.006Z,100.00
2022-12-15T01:27:53.539Z,100.00
2022-12-15T01:30:24.148Z,100.00
2022-12-15T01:32:52.013Z,100.00
2022-12-15T01:35:21.516Z,100.00
2022-12-15T01:37:50.026Z,100.00
2022-12-15T01:40:38.914Z,100.00
2022-12-15T01:43:13.656Z,100.00
2022-12-15T01:46:01.520Z,100.00
2022-12-15T01:48:49.821Z,100.00
2022-12-15T01:51:40.025Z,100.00
2022-12-15T01:54:14.488Z,100.00
2022-12-15T01:56:46.800Z,100.00
2022-12-15T01:59:20.910Z,100.00
2022-12-15T02:01:49.903Z,100.00
2022-12-15T02:04:22.440Z,100.00
2022-12-15T02:06:51.037Z,100.00
2022-12-15T02:09:22.774Z,100.00
2022-12-15T02:12:03.485Z,100.00
2022-12-15T02:15:04.417Z,100.00
2022-12-15T02:18:05.484Z,100.00
2022-12-15T02:20:46.720Z,100.00
2022-12-15T02:23:39.764Z,100.00
2022-12-15T02:26:24.167Z,100.00
2022-12-15T02:29:08.276Z,100.00
2022-12-15T02:31:50.988Z,100.00
2022-12-15T02:34:43.680Z,100.00
2022-12-15T02:37:17.514Z,100.00
2022-12-15T02:39:45.437Z,100.00
2022-12-15T02:42:13.179Z,100.00
2022-12-15T02:44:44.893Z,100.00
2022-12-15T02:47:32.223Z,100.00
2022-12-15T02:50:02.353Z,100.00
2022-12-15T02:52:40.033Z,100.00
2022-12-15T02:55:39.391Z,100.00
2022-12-15T02:58:15.396Z,100.00
2022-12-15T03:00:50.978Z,100.00
2022-12-15T03:03:21.357Z,100.00
2022-12-15T03:05:55.565Z,100.00
2022-12-15T03:08:22.789Z,100.00
2022-12-15T03:10:55.113Z,100.00
2022-12-15T03:13:28.668Z,100.00
2022-12-15T03:15:56.254Z,100.00
2022-12-15T03:18:23.857Z,100.00
2022-12-15T03:20:51.411Z,100.00
2022-12-15T03:23:18.708Z,100.00
2022-12-15T03:25:46.588Z,100.00
2022-12-15T03:28:18.528Z,100.00
2022-12-15T03:30:46.779Z,100.00
2022-12-15T03:33:18.922Z,100.00
2022-12-15T03:35:47.314Z,100.00
2022-12-15T03:38:14.698Z,100.00
2022-12-15T03:40:42.318Z,100.00
2022-12-15T03:43:09.601Z,100.00
2022-12-15T03:45:38.173Z,100.00
2022-12-15T03:48:05.793Z,100.00
2022-12-15T03:50:33.080Z,100.00
2022-12-15T03:53:04.197Z,100.00
2022-12-15T03:55:32.011Z,100.00
2022-12-15T03:57:59.601Z,100.00
2022-12-15T04:00:28.038Z,100.00
2022-12-15T04:02:55.369Z,100.00
2022-12-15T04:05:33.831Z,100.00
2022-12-15T04:08:02.110Z,100.00
2022-12-15T04:10:36.628Z,100.00
2022-12-15T04:13:07.201Z,100.00
2022-12-15T04:15:36.530Z,100.00
2022-12-15T04:18:05.995Z,100.00
2022-12-15T04:20:33.829Z,100.00
2022-12-15T04:23:02.336Z,100.00
2022-12-15T04:25:48.914Z,100.00
2022-12-15T04:28:34.664Z,100.00
2022-12-15T04:31:30.024Z,100.00
2022-12-15T04:34:20.942Z,100.00
2022-12-15T04:37:10.695Z,100.00
2022-12-15T04:40:02.908Z,100.00
2022-12-15T04:42:51.199Z,100.00
2022-12-15T04:45:42.525Z,100.00
2022-12-15T04:48:29.027Z,100.00
2022-12-15T04:51:15.120Z,100.00
2022-12-15T04:54:03.311Z,100.00
2022-12-15T04:56:51.163Z,100.00
2022-12-15T04:59:37.386Z,100.00
2022-12-15T05:02:23.263Z,100.00
2022-12-15T05:05:08.920Z,100.00
2022-12-15T05:07:54.894Z,100.00
2022-12-15T05:10:41.074Z,100.00
2022-12-15T05:13:27.833Z,100.00
2022-12-15T05:16:15.939Z,100.00
2022-12-15T05:19:02.005Z,100.00
2022-12-15T05:21:47.558Z,100.00
2022-12-15T05:24:34.245Z,100.00
2022-12-15T05:27:21.048Z,100.00
2022-12-15T05:30:07.748Z,100.00
2022-12-15T05:32:35.068Z,100.00
2022-12-15T05:35:02.207Z,100.00
2022-12-15T05:37:31.607Z,100.00
2022-12-15T05:39:59.065Z,100.00
2022-12-15T05:42:26.078Z,100.00
2022-12-15T05:44:58.974Z,100.00
2022-12-15T05:47:26.754Z,100.00
2022-12-15T05:49:53.917Z,100.00
2022-12-15T05:52:21.382Z,100.00
2022-12-15T05:54:48.769Z,100.00
2022-12-15T05:57:17.277Z,100.00
2022-12-15T05:59:45.704Z,100.00
2022-12-15T06:02:13.241Z,100.00
2022-12-15T06:04:40.671Z,100.00
2022-12-15T06:07:07.755Z,100.00
2022-12-15T06:09:35.019Z,100.00
2022-12-15T06:12:02.497Z,100.00
2022-12-15T06:14:31.557Z,100.00
2022-12-15T06:17:00.265Z,100.00
2022-12-15T06:19:28.486Z,100.00
2022-12-15T06:21:55.947Z,100.00
2022-12-15T06:24:23.454Z,100.00
2022-12-15T06:26:50.931Z,100.00
2022-12-15T06:29:18.968Z,100.00
2022-12-15T06:31:46.794Z,100.00
2022-12-15T06:34:16.217Z,100.00
2022-12-15T06:36:44.345Z,100.00
2022-12-15T06:39:15.727Z,100.00
2022-12-15T06:41:44.345Z,100.00
2022-12-15T06:44:16.114Z,100.00
2022-12-15T06:46:46.056Z,100.00
2022-12-15T06:49:14.699Z,100.00
2022-12-15T06:51:44.390Z,100.00
2022-12-15T06:54:11.977Z,100.00
2022-12-15T06:56:39.453Z,100.00
2022-12-15T06:59:07.814Z,100.00
2022-12-15T07:01:36.469Z,100.00
2022-12-15T07:04:06.086Z,100.00
2022-12-15T07:06:39.246Z,100.00
2022-12-15T07:09:10.763Z,100.00
2022-12-15T07:11:38.470Z,100.00
2022-12-15T07:14:12.117Z,100.00
2022-12-15T07:16:39.604Z,100.00
2022-12-15T07:19:12.052Z,100.00
2022-12-15T07:21:39.315Z,100.00
2022-12-15T07:24:07.066Z,100.00
2022-12-15T07:26:35.995Z,100.00
2022-12-15T07:29:03.232Z,100.00
2022-12-15T07:31:30.910Z,100.00
2022-12-15T07:34:02.252Z,100.00
2022-12-15T07:36:29.475Z,100.00
2022-12-15T07:39:01.743Z,100.00
2022-12-15T07:41:30.399Z,100.00
2022-12-15T07:43:58.880Z,100.00
2022-12-15T07:46:26.950Z,100.00
2022-12-15T07:48:54.358Z,100.00
2022-12-15T07:51:23.930Z,100.00
2022-12-15T07:53:51.426Z,100.00
2022-12-15T07:56:20.327Z,100.00
2022-12-15T07:58:47.517Z,100.00
2022-12-15T08:01:16.488Z,100.00
2022-12-15T08:03:43.839Z,100.00
2022-12-15T08:06:13.882Z,100.00
2022-12-15T08:08:42.007Z,100.00
2022-12-15T08:11:14.609Z,99.93
2022-12-15T08:16:32.347Z,99.51
2022-12-15T08:18:59.899Z,99.40
2022-12-15T08:21:27.340Z,100.00
2022-12-15T08:23:54.630Z,100.00
2022-12-15T08:26:28.223Z,100.00
2022-12-15T08:29:11.696Z,98.65
2022-12-15T08:31:46.010Z,97.44
2022-12-15T08:34:13.381Z,96.91
2022-12-15T08:36:40.637Z,96.50
2022-12-15T08:39:09.078Z,95.70
2022-12-15T08:41:36.167Z,94.47
2022-12-15T08:44:03.808Z,94.48
2022-12-15T08:46:36.639Z,94.86
2022-12-15T08:49:04.733Z,94.72
2022-12-15T08:51:33.914Z,94.13
2022-12-15T08:54:02.113Z,93.51
2022-12-15T08:56:29.768Z,92.79
2022-12-15T08:59:01.614Z,92.75
2022-12-15T09:01:32.778Z,92.10
2022-12-15T09:04:01.664Z,91.60
2022-12-15T09:06:32.611Z,91.68
2022-12-15T09:09:03.091Z,91.17
2022-12-15T09:11:31.242Z,90.15
2022-12-15T09:13:59.918Z,89.35
2022-12-15T09:16:28.429Z,89.31
2022-12-15T09:18:58.823Z,89.46
2022-12-15T09:21:28.854Z,89.28
2022-12-15T09:24:00.920Z,88.89
2022-12-15T09:26:30.361Z,86.69
2022-12-15T09:28:58.963Z,85.74
2022-12-15T09:31:31.555Z,85.45
2022-12-15T09:34:01.047Z,85.00
2022-12-15T09:36:30.437Z,83.94
2022-12-15T09:39:02.211Z,83.92
2022-12-15T09:41:33.060Z,84.38
2022-12-15T09:44:05.339Z,83.11
2022-12-15T09:46:57.262Z,83.30
2022-12-15T09:49:48.706Z,83.93
2022-12-15T09:52:22.167Z,81.33
2022-12-15T09:54:49.818Z,81.25
2022-12-15T09:57:38.188Z,80.25
2022-12-15T10:00:17.111Z,81.65
2022-12-15T10:02:46.864Z,81.54
2022-12-15T10:06:16.062Z,81.01
2022-12-15T10:08:36.912Z,81.22
2022-12-15T10:11:26.937Z,80.37
2022-12-15T10:13:59.163Z,80.40
2022-12-15T10:16:53.723Z,81.30
2022-12-15T10:19:27.613Z,82.43
2022-12-15T10:21:55.046Z,82.70
2022-12-15T10:24:51.727Z,82.57
2022-12-15T10:27:30.897Z,82.47
2022-12-15T10:29:58.476Z,81.94
2022-12-15T10:32:50.733Z,82.53
2022-12-15T10:35:31.509Z,82.63
2022-12-15T10:38:01.566Z,81.89
2022-12-15T10:40:58.791Z,80.53
2022-12-15T10:43:37.423Z,81.05
2022-12-15T10:46:23.348Z,79.99
2022-12-15T10:49:21.709Z,79.54
2022-12-15T10:52:03.400Z,78.85
2022-12-15T10:54:36.999Z,79.07
2022-12-15T10:57:23.803Z,79.25
2022-12-15T11:00:15.600Z,79.15
2022-12-15T11:02:43.503Z,80.31
2022-12-15T11:05:16.504Z,80.58
2022-12-15T11:07:55.794Z,81.37
2022-12-15T11:10:54.070Z,81.98
2022-12-15T11:13:23.394Z,82.55
2022-12-15T11:15:56.794Z,81.78
2022-12-15T11:18:36.080Z,80.83
2022-12-15T11:21:13.259Z,79.98
2022-12-15T11:24:32.180Z,79.78
2022-12-15T11:27:11.144Z,79.26
2022-12-15T11:29:55.743Z,79.22
2022-12-15T11:32:29.875Z,79.31
2022-12-15T11:34:57.372Z,79.31
2022-12-15T11:37:45.723Z,78.67
2022-12-15T11:40:38.235Z,78.29
2022-12-15T11:43:18.797Z,77.17
2022-12-15T11:46:20.872Z,76.62
2022-12-15T11:49:12.558Z,75.81
2022-12-15T11:52:06.615Z,75.76
2022-12-15T11:54:55.685Z,77.12
2022-12-15T11:57:28.925Z,77.06
2022-12-15T12:00:04.215Z,76.85
2022-12-15T12:02:40.162Z,76.39
2022-12-15T12:05:30.313Z,76.42
2022-12-15T12:08:06.699Z,75.32
2022-12-15T12:10:46.369Z,73.70
2022-12-15T12:13:25.423Z,72.13
2022-12-15T12:16:10.795Z,71.59
2022-12-15T12:19:04.818Z,68.01
2022-12-15T12:21:55.506Z,65.62
2022-12-15T12:24:33.839Z,64.97
2022-12-15T12:27:34.479Z,62.74
2022-12-15T12:30:23.206Z,60.91
2022-12-15T12:33:30.799Z,60.06
2022-12-15T12:36:10.862Z,59.64
2022-12-15T12:38:50.926Z,59.44
2022-12-15T12:41:36.241Z,58.13
2022-12-15T12:44:15.516Z,57.49
2022-12-15T12:46:50.751Z,57.21
2022-12-15T12:49:32.034Z,57.53
2022-12-15T12:52:03.850Z,57.71
2022-12-15T12:54:37.007Z,57.71
2022-12-15T12:57:13.285Z,57.50
2022-12-15T12:59:49.351Z,58.50
2022-12-15T13:02:22.643Z,59.23
2022-12-15T13:05:00.208Z,59.57
2022-12-15T13:07:36.606Z,59.22
2022-12-15T13:10:19.904Z,59.69
2022-12-15T13:12:55.266Z,60.00
2022-12-15T13:15:31.586Z,60.37
2022-12-15T13:18:18.920Z,60.87
2022-12-15T13:20:48.934Z,61.73
2022-12-15T13:23:19.385Z,62.44
2022-12-15T13:26:08.946Z,63.51
2022-12-15T13:28:45.631Z,65.37
2022-12-15T13:31:19.412Z,65.18
2022-12-15T13:33:50.120Z,64.41
2022-12-15T13:36:42.424Z,64.36
2022-12-15T13:39:15.297Z,64.80
2022-12-15T13:42:32.607Z,65.21
2022-12-15T13:45:03.686Z,64.98
2022-12-15T13:47:31.830Z,65.69
2022-12-15T13:50:09.546Z,66.41
2022-12-15T13:55:46.585Z,68.67
2022-12-15T13:58:22.009Z,69.28
2022-12-15T14:00:57.172Z,69.96
2022-12-15T14:03:25.008Z,71.05
2022-12-15T14:05:58.713Z,71.91
2022-12-15T14:08:30.633Z,73.01
2022-12-15T14:11:07.064Z,73.54
2022-12-15T14:13:49.127Z,74.49
2022-12-15T14:16:23.373Z,75.59
2022-12-15T14:19:17.744Z,76.59
2022-12-15T14:21:58.936Z,77.58
2022-12-15T14:24:40.515Z,78.47
2022-12-15T14:27:31.388Z,79.49
2022-12-15T14:30:22.858Z,80.54
2022-12-15T14:33:04.136Z,81.34
2022-12-15T14:35:40.429Z,82.44
2022-12-15T14:38:24.729Z,83.49
2022-12-15T14:40:55.508Z,84.35
2022-12-15T14:43:32.663Z,85.26
2022-12-15T14:46:22.637Z,86.13
2022-12-15T14:49:04.292Z,86.76
2022-12-15T14:51:46.990Z,87.29
2022-12-15T14:54:50.170Z,87.78
2022-12-15T14:57:24.667Z,88.60
2022-12-15T14:59:53.652Z,89.07
2022-12-15T15:02:26.998Z,89.76
2022-12-15T15:05:08.166Z,89.75
2022-12-15T15:07:39.650Z,88.24
2022-12-15T15:10:29.547Z,87.46
2022-12-15T15:12:57.252Z,87.50
2022-12-15T15:15:26.300Z,88.20
2022-12-15T15:17:57.531Z,88.99
2022-12-15T15:20:31.953Z,90.46
2022-12-15T15:23:11.088Z,91.46
2022-12-15T15:25:41.679Z,92.00
2022-12-15T15:28:15.864Z,91.90
2022-12-15T15:31:00.811Z,91.62
2022-12-15T15:33:28.120Z,91.80
2022-12-15T15:36:03.004Z,92.14
2022-12-15T15:38:38.226Z,93.21
2022-12-15T15:41:21.323Z,94.47
2022-12-15T15:43:48.630Z,95.49
2022-12-15T15:46:21.620Z,96.42
2022-12-15T15:48:55.911Z,97.16
2022-12-15T15:51:26.604Z,96.93
2022-12-15T15:53:58.196Z,96.85
2022-12-15T15:56:28.718Z,96.57
2022-12-15T15:59:11.541Z,96.32
2022-12-15T16:01:39.374Z,96.44
2022-12-15T16:04:07.136Z,96.62
2022-12-15T16:06:42.097Z,96.70
2022-12-15T16:09:15.387Z,96.60
2022-12-15T16:11:44.060Z,96.37
2022-12-15T16:14:16.975Z,95.78
2022-12-15T16:16:46.549Z,95.43
2022-12-15T16:19:13.863Z,95.07
2022-12-15T16:21:51.165Z,94.97
2022-12-15T16:24:19.741Z,95.52
2022-12-15T16:26:51.166Z,95.40
2022-12-15T16:29:25.726Z,95.05
2022-12-15T16:31:53.230Z,95.43
2022-12-15T16:34:24.948Z,94.95
2022-12-15T16:36:58.881Z,93.29
2022-12-15T16:39:35.345Z,91.54
2022-12-15T16:42:03.127Z,90.92
2022-12-15T16:44:30.879Z,90.57
2022-12-15T16:46:59.290Z,90.66
2022-12-15T16:49:35.063Z,91.26
2022-12-15T16:52:05.795Z,91.77
2022-12-15T16:54:33.089Z,92.25
2022-12-15T16:57:01.670Z,92.94
2022-12-15T16:59:33.801Z,93.58
2022-12-15T17:02:13.444Z,94.34
2022-12-15T17:04:43.334Z,94.95
2022-12-15T17:07:20.019Z,95.31
2022-12-15T17:09:50.212Z,96.08
2022-12-15T17:12:18.607Z,96.38
2022-12-15T17:14:47.004Z,96.11
2022-12-15T17:17:19.634Z,95.37
2022-12-15T17:20:27.361Z,94.38
2022-12-15T17:22:38.286Z,93.75
2022-12-15T17:25:06.040Z,93.52
2022-12-15T17:27:33.799Z,93.58
2022-12-15T17:30:02.083Z,93.64
2022-12-15T17:32:29.819Z,93.88
2022-12-15T17:34:57.701Z,94.00
2022-12-15T17:37:33.480Z,93.93
2022-12-15T17:40:03.990Z,94.03
2022-12-15T17:42:32.082Z,94.02
2022-12-15T17:45:01.379Z,93.94
2022-12-15T17:47:31.007Z,93.67
2022-12-15T17:49:58.265Z,93.66
2022-12-15T17:52:35.300Z,93.56
2022-12-15T17:55:05.160Z,93.35
2022-12-15T17:57:32.660Z,93.13
2022-12-15T18:00:02.334Z,93.10
2022-12-15T18:02:30.056Z,92.75
2022-12-15T18:04:59.978Z,92.40
2022-12-15T18:07:33.360Z,92.61
2022-12-15T18:10:02.482Z,92.61
2022-12-15T18:12:31.029Z,92.45
2022-12-15T18:14:58.902Z,92.69
2022-12-15T18:17:27.531Z,92.92
2022-12-15T18:19:55.133Z,92.62
2022-12-15T18:22:25.041Z,92.13
2022-12-15T18:24:57.499Z,91.89
2022-12-15T18:27:28.504Z,91.86
2022-12-15T18:29:56.895Z,91.84
2022-12-15T18:32:27.925Z,91.86
2022-12-15T18:34:56.228Z,91.74
2022-12-15T18:37:28.438Z,91.98
2022-12-15T18:39:58.332Z,91.99
2022-12-15T18:42:31.960Z,91.84
2022-12-15T18:45:00.791Z,91.63
2022-12-15T18:47:28.492Z,91.37
2022-12-15T18:49:56.710Z,90.89
2022-12-15T18:52:34.680Z,90.53
2022-12-15T18:55:03.432Z,90.40
2022-12-15T18:57:36.448Z,90.55
2022-12-15T19:00:18.624Z,90.95
2022-12-15T19:02:46.424Z,91.54
2022-12-15T19:05:49.207Z,91.86
2022-12-15T19:08:26.545Z,92.74
2022-12-15T19:11:05.314Z,93.41
2022-12-15T19:13:40.324Z,93.97
2022-12-15T19:16:17.049Z,94.30
2022-12-15T19:19:03.667Z,94.49
2022-12-15T19:21:54.860Z,94.23
2022-12-15T19:24:49.775Z,93.94
2022-12-15T19:27:21.631Z,93.26
2022-12-15T19:29:55.576Z,92.13
2022-12-15T19:32:24.085Z,92.29
2022-12-15T19:34:52.025Z,92.78
2022-12-15T19:37:31.603Z,92.96
2022-12-15T19:40:05.369Z,92.92
2022-12-15T19:42:37.393Z,92.92
2022-12-15T19:45:19.796Z,92.27
2022-12-15T19:47:48.527Z,92.04
2022-12-15T19:50:21.737Z,92.06
2022-12-15T19:52:52.494Z,92.12
2022-12-15T19:55:28.208Z,92.14
2022-12-15T19:57:57.976Z,91.84
2022-12-15T20:00:27.648Z,90.67
2022-12-15T20:02:56.346Z,90.20
2022-12-15T20:05:34.207Z,90.29
2022-12-15T20:08:03.202Z,90.70
2022-12-15T20:10:32.717Z,91.26
2022-12-15T20:13:03.559Z,91.84
2022-12-15T20:15:31.364Z,92.03
2022-12-15T20:17:59.238Z,92.47
2022-12-15T20:20:29.623Z,92.84
2022-12-15T20:23:24.143Z,93.39
2022-12-15T20:25:51.972Z,94.03
2022-12-15T20:28:30.866Z,94.75
2022-12-15T20:30:58.772Z,94.93
2022-12-15T20:33:26.527Z,95.26
2022-12-15T20:35:55.054Z,95.31
2022-12-15T20:38:34.609Z,95.14
2022-12-15T20:41:03.238Z,95.24
2022-12-15T20:43:35.248Z,96.01
2022-12-15T20:46:09.347Z,96.22
2022-12-15T20:48:37.390Z,96.60
2022-12-15T20:51:09.835Z,96.47
2022-12-15T20:53:39.365Z,96.39
2022-12-15T20:56:09.242Z,96.46
2022-12-15T20:58:39.662Z,95.72
2022-12-15T21:01:22.860Z,95.59
2022-12-15T21:03:51.850Z,95.21
2022-12-15T21:06:20.157Z,95.06
2022-12-15T21:08:47.957Z,94.86
2022-12-15T21:11:22.705Z,94.88
2022-12-15T21:13:53.092Z,95.16
2022-12-15T21:16:23.444Z,95.34
2022-12-15T21:21:43.284Z,94.61
2022-12-15T21:24:23.082Z,94.15
2022-12-15T21:26:52.627Z,94.03
2022-12-15T21:29:28.094Z,93.85
2022-12-15T21:31:55.489Z,93.52
2022-12-15T21:34:28.587Z,93.50
2022-12-15T21:36:57.460Z,93.71
2022-12-15T21:39:30.201Z,94.02
2022-12-15T21:42:13.044Z,94.36
2022-12-15T21:44:42.880Z,94.70
2022-12-15T21:48:01.019Z,94.96
2022-12-15T21:50:28.488Z,95.28
2022-12-15T21:52:56.398Z,95.48
2022-12-15T21:55:27.256Z,95.69
2022-12-15T21:57:57.758Z,95.70
2022-12-15T22:00:26.550Z,95.69
2022-12-15T22:02:54.624Z,95.28
2022-12-15T22:05:26.065Z,94.49
2022-12-15T22:07:54.635Z,94.40
2022-12-15T22:10:24.897Z,94.48
2022-12-15T22:12:59.056Z,94.81
2022-12-15T22:15:33.192Z,95.60
2022-12-15T22:18:00.741Z,96.20
2022-12-15T22:20:28.280Z,96.88
2022-12-15T22:22:55.802Z,97.44
2022-12-15T22:25:26.511Z,97.83
2022-12-15T22:27:54.948Z,98.18
2022-12-15T22:30:27.177Z,98.57
2022-12-15T22:32:55.031Z,98.96
2022-12-15T22:35:26.875Z,99.65
2022-12-15T22:38:01.399Z,100.00
2022-12-15T22:40:29.067Z,100.00
2022-12-15T22:42:58.524Z,100.00
2022-12-15T22:45:25.903Z,100.00
2022-12-15T22:47:55.033Z,100.00
2022-12-15T22:50:26.217Z,100.00
2022-12-15T22:52:55.092Z,100.00
2022-12-15T22:55:24.735Z,100.00
2022-12-15T22:58:01.789Z,100.00
2022-12-15T23:00:28.981Z,100.00
2022-12-15T23:05:30.146Z,100.00
2022-12-15T23:07:59.349Z,100.00
2022-12-15T23:10:44.908Z,100.00
2022-12-15T23:13:13.015Z,100.00
2022-12-15T23:16:00.004Z,100.00
2022-12-15T23:18:27.498Z,100.00
2022-12-15T23:20:54.963Z,100.00
2022-12-15T23:23:22.260Z,100.00
2022-12-15T23:25:49.769Z,100.00
2022-12-15T23:28:17.224Z,100.00
2022-12-15T23:30:53.274Z,100.00
2022-12-15T23:33:21.829Z,100.00
2022-12-15T23:35:49.591Z,100.00
2022-12-15T23:38:18.227Z,100.00
2022-12-15T23:40:52.581Z,100.00
2022-12-15T23:43:22.672Z,100.00
2022-12-15T23:46:03.327Z,100.00
2022-12-15T23:48:39.222Z,100.00
2022-12-15T23:51:09.538Z,100.00
2022-12-15T23:53:38.145Z,100.00
2022-12-15T23:56:25.679Z,100.00
2022-12-15T23:58:59.640Z,100.00
